Big Bend, WI

3:35 PM CDT on September 21, 2014 (GMT -0500)
DaveR Vernon Weather | Change Station
CLOSE
Current Station
Personal Weather Station
Location: Big Bend, WI
Elevation: 935 ft
Nearby Weather Stations

Elev 935 ft 42.90 °N, 88.21 °W | Updated 8 seconds ago

Mostly Cloudy
Mostly Cloudy
60.5 °F
Feels Like 60.5 °F
N
1.0
Wind Variable Wind from NNW
Gusts 1.0 mph

Today
High -- | Low -- °F
--% Chance of Precip.
Yesterday
High -- | Low -- °F
Precip. -- in
6:39 AM 6:51 PM
Waning Crescent, 5% visible
Pressure 29.98 in
Visibility 10.0 miles
Clouds Mostly Cloudy 3500 ft
Mostly Cloudy 5500 ft
Dew Point 53 °F
Humidity 76%
Rainfall 0.24 in
Snow Depth Not available.
UV 3 out of 12
Pollen 3.80 out of 12
Air Quality Not available.
Flu Activity Not available.
METAR KUES 211945Z 32014G21KT 10SM BKN035 BKN055 15/08 A2998

More Conditions Fewer Conditions

Pressure 29.98 in
Visibility 10.0 miles
Clouds Mostly Cloudy 3500 ft
Mostly Cloudy 5500 ft
Dew Point 53 °F
Humidity 76%
Rainfall 0.24 in
Snow Depth Not available.
UV 3 out of 12
Pollen 3.80 out of 12
Air Quality Not available.
Flu Activity Not available.
METAR KUES 211945Z 32014G21KT 10SM BKN035 BKN055 15/08 A2998

More Conditions Fewer Conditions

10-Day Weather Forecast

Almanac

Astronomy

Sep. 21, 2014 Rise Set
Actual Time 6:39 AM CDT 6:51 PM CDT
Civil Twilight 6:10 AM CDT 7:20 PM CDT
Nautical Twilight 5:37 AM CDT 7:53 PM CDT
Astronomical Twilight 5:03 AM CDT 8:27 PM CDT
Moon 4:09 AM CDT 5:30 PM CDT
Length of Visible Light 13h 09m
Length of Day
12h 12m
Tomorrow will be 2m 54s shorter.
Waning Crescent, 5% of the Moon is Illuminated
Today
Waning Crescent
Sep 24
New
Oct 1
First Quarter
Oct 8
Full
Oct 15
Last Quarter

Today's Extremes

State Highs State Lows

Community

WunderPhotos

Upload Photos

1,755,245 photos uploaded!

Nearby

Snow Depth

Station Depth Elevation
No new snow has been reported.

Earthquake Activity

City Distance Mag. Time & Date
No recent earthquake activity has been reported nearby.
Minimum magnitude displayed is 2.5.

Coastal Water Temperatures

Place Temperature
No Stations Reporting

Nearby Weather Stations